Flight Track Log - Related Links

Times and Time Zones

All times are in EDT time to prevent confusion due to time zone crossing. See the TRS409 flight status page for this flight to view local times or setup timezone preferences in your user account.

Time Position Orientation Groundspeed Altitude Reporting Facility
EDT Latitude Longitude Course Direction KTS MPH feet Rate Location/Type
09:08PM 28.4000 -81.3000 270° West 180 207 800  Level Orlando TRACON
09:09PM 28.3667 -81.3167 204° Southwest 217 250 2,000 1,941 Climbing Orlando TRACON
09:10PM 28.3167 -81.3667 221° Southwest 271 312 4,100 2,400 Climbing Orlando TRACON
09:11PM 28.3333 -81.4500 283° West 268 308 6,800 2,324 Climbing Orlando TRACON
09:13PM 28.3647 -81.6047 283° West 283 326 10,800 1,803 Climbing Jacksonville Center
09:14PM 28.4167 -82.0416 270° West  Level FlightAware Approximate
09:14PM 28.3906 -81.7011 287° West 288 331 12,000  Level Jacksonville Center
09:15PM 28.4189 -81.8164 286° West 340 391 14,100 2,000 Climbing Jacksonville Center
09:16PM 28.4508 -81.9269 288° West 360 414 16,000 1,850 Climbing Jacksonville Center
09:17PM 28.4747 -82.0447 283° West 374 430 17,800 1,800 Climbing Jacksonville Center
09:18PM 28.5006 -82.1486 286° West 379 436 19,600 1,900 Climbing Jacksonville Center
09:19PM 28.5303 -82.2736 285° West 391 450 21,600 2,000 Climbing Jacksonville Center
09:20PM 28.5600 -82.3986 285° West 405 466 23,600 1,850 Climbing Jacksonville Center
09:21PM 28.5897 -82.5214 285° West 410 472 25,300 1,600 Climbing Jacksonville Center
09:22PM 28.6172 -82.6514 284° West 416 479 26,800 1,550 Climbing Jacksonville Center
09:23PM 28.6444 -82.7814 283° West 421 484 28,400 1,750 Climbing Jacksonville Center
09:24PM 28.7300 -82.8761 316° Northwest 384 442 30,300 1,650 Climbing Jacksonville Center
09:25PM 28.8322 -82.9328 334° Northwest 379 436 31,700 1,650 Climbing Jacksonville Center
09:26PM 28.9283 -82.9875 334° Northwest 393 452 33,600 1,150 Climbing Jacksonville Center
09:27PM 29.0264 -83.0444 333° Northwest 388 447 34,000 200 Climbing Jacksonville Center
09:28PM 29.1244 -83.0994 334° Northwest 388 447 34,000  Level Jacksonville Center
09:29PM 29.2183 -83.1542 333° Northwest 388 447 34,000  Level Jacksonville Center
09:30PM 29.3142 -83.2092 333° Northwest 383 441 34,000  Level Jacksonville Center
09:31PM 29.4100 -83.2644 333° Northwest 383 441 34,000  Level Jacksonville Center
09:32PM 29.5039 -83.3197 333° Northwest 383 441 34,000  Level Jacksonville Center
09:33PM 29.6039 -83.3750 334° Northwest 388 447 34,000  Level Jacksonville Center
09:34PM 29.6975 -83.4331 332° Northwest 388 447 34,000  Level Jacksonville Center
09:35PM 29.7975 -83.4886 334° Northwest 388 447 34,000  Level Jacksonville Center
09:36PM 29.8933 -83.5467 332° Northwest 388 447 34,000  Level Jacksonville Center
09:37PM 29.9931 -83.6025 334° Northwest 388 447 34,000  Level Jacksonville Center
09:38PM 30.0889 -83.6583 333° Northwest 388 447 34,000  Level Jacksonville Center
09:39PM 30.1867 -83.7169 333° Northwest 388 447 34,000  Level Jacksonville Center
09:40PM 30.2803 -83.7706 334° Northwest 388 447 34,000  Level Jacksonville Center
09:41PM 30.3758 -83.8292 332° Northwest 388 447 34,000  Level Jacksonville Center
09:42PM 30.4736 -83.8856 334° Northwest 388 447 34,000  Level Jacksonville Center
09:43PM 30.5586 -83.9347 334° Northwest 388 447 34,000  Level Jacksonville Center
09:44PM 30.6522 -83.9936 332° Northwest 388 447 34,000 150 Level Jacksonville Center
09:45PM 30.7519 -84.0506 334° Northwest 388 447 34,300 750 Climbing Jacksonville Center
09:46PM 30.8453 -84.1097 331° Northwest 388 447 35,500 850 Climbing Jacksonville Center
09:47PM 30.9367 -84.1642 333° Northwest 383 441 36,000 250 Climbing Jacksonville Center
09:48PM 31.0300 -84.2186 333° Northwest 378 435 36,000  Level Jacksonville Center
09:49PM 31.1256 -84.2758 333° Northwest 378 435 36,000  Level Jacksonville Center
09:50PM 31.2189 -84.3308 333° Northwest 378 435 36,000  Level Jacksonville Center
09:51PM 31.3142 -84.3906 332° Northwest 378 435 36,000  Level Jacksonville Center
09:54PM 31.6014 -84.5656 333° Northwest 375 432 36,000  Level Atlanta Center
09:55PM 31.6953 -84.6222 333° Northwest 388 447 36,000  Level Atlanta Center
09:56PM 31.7931 -84.6814 333° Northwest 388 447 36,000  Level Atlanta Center
09:57PM 31.8886 -84.7408 332° Northwest 388 447 36,000  Level Atlanta Center
09:58PM 31.9864 -84.8003 333° Northwest 388 447 36,000  Level Atlanta Center
09:59PM 32.0717 -84.8525 333° Northwest 388 447 36,000  Level Atlanta Center
10:00PM 32.1694 -84.9125 333° Northwest 388 447 36,000  Level Atlanta Center
10:01PM 32.2753 -84.9747 334° Northwest 388 447 36,000  Level Atlanta Center
10:02PM 32.3731 -85.0325 333° Northwest 383 441 36,000  Level Atlanta Center
10:03PM 32.4725 -85.0950 332° Northwest 388 447 36,000  Level Atlanta Center
10:04PM 32.5661 -85.1553 332° Northwest 388 447 36,000  Level Atlanta Center
10:05PM 32.6614 -85.2133 333° Northwest 388 447 36,000  Level Atlanta Center
10:06PM 32.7611 -85.2764 332° Northwest 388 447 36,000  Level Atlanta Center
10:07PM 32.8628 -85.3372 333° Northwest 388 447 36,000  Level Atlanta Center
10:08PM 32.9603 -85.4006 331° Northwest 388 447 36,000  Level Atlanta Center
10:09PM 33.0556 -85.4564 334° Northwest 388 447 36,000  Level Atlanta Center
10:10PM 33.1569 -85.5275 330° Northwest 388 447 36,000  Level Atlanta Center
10:11PM 33.2522 -85.5864 333° Northwest 388 447 36,000  Level Atlanta Center
10:12PM 33.3475 -85.6528 330° Northwest 388 447 36,000  Level Atlanta Center
10:13PM 33.4447 -85.7142 332° Northwest 388 447 36,000  Level Atlanta Center
10:14PM 33.5442 -85.7786 332° Northwest 388 447 36,000  Level Atlanta Center
10:15PM 33.6392 -85.8303 336° Northwest 383 441 36,000  Level Atlanta Center
10:16PM 33.7344 -85.8922 332° Northwest 389 448 36,000  Level Atlanta Center
10:17PM 33.8356 -85.9569 332° Northwest 389 448 36,000  Level Atlanta Center
10:18PM 33.9347 -86.0219 331° Northwest 389 448 36,000  Level Atlanta Center
10:19PM 34.0319 -86.0842 332° Northwest 389 448 36,000  Level Atlanta Center
10:20PM 34.1311 -86.1494 331° Northwest 389 448 36,000  Level Atlanta Center
10:21PM 34.2281 -86.2119 332° Northwest 389 448 36,000  Level Atlanta Center
10:22PM 34.3269 -86.2750 332° Northwest 389 448 36,000  Level Atlanta Center
10:23PM 34.4239 -86.3406 331° Northwest 389 448 36,000  Level Atlanta Center
10:24PM 34.5250 -86.4061 332° Northwest 389 448 36,000  Level Atlanta Center
10:25PM 34.6217 -86.4719 331° Northwest 394 453 36,000  Level Atlanta Center
10:26PM 34.7206 -86.5356 332° Northwest 394 453 36,000  Level Atlanta Center
10:26PM 34.7786 -86.5747 331° Northwest 397 457 36,000  Level Memphis Center
10:27PM 34.8786 -86.6411 331° Northwest 397 457 36,000  Level Memphis Center
10:28PM 34.9808 -86.7075 332° Northwest 402 463 36,000  Level Memphis Center
10:29PM 35.0808 -86.7742 331° Northwest 407 468 36,000  Level Memphis Center
10:30PM 35.1767 -86.8464 328° Northwest 407 468 36,000  Level Memphis Center
10:31PM 35.2786 -86.9108 333° Northwest 412 474 36,000  Level Memphis Center
10:32PM 35.3783 -86.9753 332° Northwest 412 474 36,000  Level Memphis Center
10:33PM 35.4761 -87.0453 330° Northwest 407 468 36,000  Level Memphis Center
10:34PM 35.5761 -87.1153 330° Northwest 412 474 36,000  Level Memphis Center
10:35PM 35.6781 -87.1853 331° Northwest 412 474 36,000  Level Memphis Center
10:36PM 35.7797 -87.2506 332° Northwest 412 474 36,000  Level Memphis Center
10:37PM 35.8794 -87.3211 330° Northwest 412 474 36,000  Level Memphis Center
10:38PM 35.9706 -87.3844 331° Northwest 412 474 36,000  Level Memphis Center
10:39PM 36.0722 -87.4500 332° Northwest 418 481 36,000  Level Memphis Center
10:40PM 36.1742 -87.5211 331° Northwest 413 475 36,000  Level Memphis Center
10:41PM 36.2736 -87.5897 331° Northwest 413 475 36,000  Level Memphis Center
10:42PM 36.3836 -87.6658 331° Northwest 413 475 36,000  Level Memphis Center
10:43PM 36.4872 -87.7372 331° Northwest 413 475 36,000  Level Memphis Center
10:44PM 36.5847 -87.8039 331° Northwest 408 470 36,000  Level Memphis Center
10:45PM 36.6819 -87.8731 330° Northwest 408 470 36,000  Level Memphis Center
10:46PM 36.7833 -87.9425 331° Northwest 408 470 36,000  Level Memphis Center
10:47PM 36.8847 -88.0122 331° Northwest 414 476 36,000 -200 Level Memphis Center
10:48PM 36.9839 -88.0819 331° Northwest 414 476 35,600 -500 Descending Memphis Center
10:49PM 37.0767 -88.1494 330° Northwest 419 482 35,000 -500 Descending Memphis Center
10:50PM 37.1803 -88.2219 331° Northwest 419 482 34,600 -600 Descending Memphis Center
10:51PM 37.2814 -88.2922 331° Northwest 419 482 33,800 -717 Descending Memphis Center
10:54PM 37.4858 -88.4389 330° Northwest 430 495 32,400 -584 Descending Kansas City Center
10:55PM 37.6058 -88.5247 330° Northwest 434 499 32,000 -197 Descending Kansas City Center
10:56PM 37.7111 -88.6014 330° Northwest 433 498 32,000  Level Kansas City Center
10:57PM 37.8167 -88.6775 330° Northwest 434 499 32,000  Level Kansas City Center
10:58PM 37.9186 -88.7508 330° Northwest 439 505 32,000  Level Kansas City Center
10:59PM 38.0242 -88.8278 330° Northwest 440 506 32,000  Level Kansas City Center
11:00PM 38.1286 -88.9033 330° Northwest 435 501 32,000  Level Kansas City Center
11:01PM 38.2322 -88.9778 331° Northwest 432 497 32,000  Level Kansas City Center
11:02PM 38.3539 -89.0714 329° Northwest 425 489 32,000  Level Kansas City Center
11:03PM 38.4569 -89.1458 331° Northwest 427 491 32,000  Level Kansas City Center
11:04PM 38.5597 -89.2225 330° Northwest 428 493 32,000  Level Kansas City Center
11:05PM 38.6700 -89.3031 330° Northwest 426 490 32,000  Level Kansas City Center
11:06PM 38.7681 -89.3756 330° Northwest 413 475 32,000  Level Kansas City Center
11:07PM 38.8653 -89.4489 330° Northwest 408 470 32,000  Level Kansas City Center
11:08PM 38.9711 -89.5283 330° Northwest 410 472 32,000 246 Level Kansas City Center
11:09PM 39.0678 -89.6019 329° Northwest 406 467 32,500 934 Climbing Kansas City Center
11:10PM 39.1653 -89.6764 329° Northwest 408 470 33,900 738 Climbing Kansas City Center
11:11PM 39.2672 -89.7511 330° Northwest 410 472 34,000 49 Climbing Kansas City Center
11:12PM 39.3683 -89.8289 329° Northwest 420 483 34,000  Level Kansas City Center
11:13PM 39.4692 -89.9064 329° Northwest 424 488 34,000  Level Kansas City Center
11:14PM 39.5700 -89.9839 329° Northwest 423 487 34,000  Level Kansas City Center
11:15PM 39.6711 -90.0606 330° Northwest 423 487 34,000  Level Kansas City Center
11:16PM 39.7867 -90.1514 329° Northwest 426 490 34,000  Level Kansas City Center
11:17PM 39.8936 -90.2231 333° Northwest 430 495 34,000  Level Kansas City Center
11:18PM 39.9992 -90.2972 332° Northwest 430 495 34,000  Level Kansas City Center
11:19PM 40.1053 -90.3703 332° Northwest 431 496 34,000  Level Chicago Center
11:20PM 40.2122 -90.4453 332° Northwest 432 497 34,000  Level Chicago Center
11:21PM 40.3186 -90.5208 332° Northwest 433 498 34,000  Level Chicago Center
11:22PM 40.4267 -90.5956 332° Northwest 435 501 34,000  Level Chicago Center
11:23PM 40.5367 -90.6689 333° Northwest 438 504 34,000  Level Chicago Center
11:24PM 40.6711 -90.7519 335° Northwest 441 507 34,000  Level Chicago Center
11:25PM 40.7778 -90.8294 331° Northwest 437 503 34,000  Level Chicago Center
11:26PM 40.8847 -90.9053 332° Northwest 436 502 34,000  Level Chicago Center
11:27PM 40.9911 -90.9811 332° Northwest 433 498 34,000  Level Chicago Center
11:28PM 41.0961 -91.0556 332° Northwest 429 494 34,000  Level Chicago Center
11:29PM 41.2014 -91.1342 331° Northwest 432 497 34,000  Level Chicago Center
11:30PM 41.3072 -91.2103 332° Northwest 432 497 34,000  Level Chicago Center
11:31PM 41.4164 -91.2911 331° Northwest 445 512 34,000  Level Chicago Center
11:32PM 41.5214 -91.3669 332° Northwest 455 524 34,000  Level Chicago Center
11:33PM 41.6550 -91.4650 331° Northwest 461 531 34,000  Level Chicago Center
11:34PM 41.7681 -91.5503 331° Northwest 468 539 34,000  Level Chicago Center
11:35PM 41.8803 -91.6319 332° Northwest 464 534 34,000  Level Chicago Center
11:36PM 41.9919 -91.7156 331° Northwest 461 531 34,000  Level Chicago Center
11:37PM 42.1031 -91.7983 331° Northwest 459 528 34,000  Level Chicago Center
11:38PM 42.2131 -91.8811 331° Northwest 455 524 34,000  Level Chicago Center
11:39PM 42.3233 -91.9650 331° Northwest 455 524 34,000  Level Chicago Center
11:41PM 42.4328 -92.0458 331° Northwest 451 519 34,000  Level Chicago Center
11:42PM 42.5425 -92.1317 330° Northwest 454 522 34,000  Level Chicago Center
11:43PM 42.6514 -92.2158 330° Northwest 450 518 34,000 -48 Level Chicago Center
11:44PM 42.7847 -92.3178 331° Northwest 453 521 33,900 -524 Descending Minneapolis Center
11:45PM 42.8936 -92.4031 330° Northwest 452 520 32,900 -927 Descending Minneapolis Center
11:46PM 43.0047 -92.4894 330° Northwest 460 529 32,000 -443 Descending Minneapolis Center
11:47PM 43.1158 -92.5767 330° Northwest 463 533 32,000  Level Minneapolis Center
11:48PM 43.2264 -92.6639 330° Northwest 461 531 32,000 -98 Level Minneapolis Center
11:49PM 43.3381 -92.7500 331° Northwest 463 533 31,800 -1,328 Descending Minneapolis Center
11:50PM 43.4675 -92.8522 330° Northwest 451 519 29,300 -2,537 Descending Minneapolis Center
11:51PM 43.5722 -92.9358 330° Northwest 441 507 26,600 -2,585 Descending Minneapolis Center
11:52PM 43.6703 -93.0142 330° Northwest 419 482 24,000 -2,557 Descending Minneapolis Center
11:53PM 43.7636 -93.0897 330° Northwest 399 459 21,400 -2,508 Descending Minneapolis Center
11:54PM 43.8486 -93.1558 331° Northwest 381 438 18,900 -2,508 Descending Minneapolis Center
11:55PM 43.9367 -93.2256 330° Northwest 367 422 16,300 -2,803 Descending Minneapolis Center
11:56PM 44.0481 -93.2394 355° North 339 390 13,200 -2,607 Descending Minneapolis Center
11:57PM 44.1394 -93.2308 North 328 377 11,000 -1,561 Descending Minneapolis Center
11:58PM 44.2267 -93.2217 North 316 364 10,000 -488 Descending Minneapolis Center
11:59PM 44.3139 -93.2139 North 314 361 10,000 -344 Level Minneapolis Center
12:00AM 44.3908 -93.2067 North 275 316 9,300 -1,279 Descending Minneapolis Center
12:01AM 44.4636 -93.1964 North 264 304 7,400 -1,030 Descending Minneapolis Center
12:02AM 44.5311 -93.1700 16° North 254 292 7,000 -537 Descending Minneapolis Center
12:03AM 44.6119 -93.1403 15° North 252 290 6,200 -1,180 Descending Minneapolis Center
12:04AM 44.6919 -93.1100 15° North 252 290 4,600 -1,525 Descending Minneapolis Center
12:05AM 44.7581 -93.0856 15° North 248 285 3,100 -793 Descending Minneapolis Center
12:06AM 44.8083 -93.0672 15° North 185 213 3,000 -248 Descending Minneapolis Center
12:07AM 44.8367 -93.0917 329° Northwest 155 178 2,600 -541 Descending Minneapolis Center
12:08AM 44.8564 -93.1369 302° West 139 160 1,900 -738 Descending Minneapolis Center
12:09AM 44.8761 -93.1811 302° West 135 155 1,100 -787 Descending Minneapolis Center
12:11AM 44.8667 -93.2167 289° West  Level FlightAware Approximate

Login

Don't have an account? Register now (free) for customized features, flight alerts, and more!